Time;durP1;ratioP1;P1;durP2;ratioP2;P2;SDS_P1;SDS_P2;PMS_P1;PMS_P2;Temp;Humidity;BMP_temperature;BMP_pressure;BME280_temperature;BME280_humidity;BME280_pressure;Samples;Min_cycle;Max_cycle;Signal;HPM_P1;HPM_P2
2022/12/21 00:01:11;;;;;;;4.68;3.38;;;;;;;;;;5061217;28;20432;-43
2022/12/21 00:03:37;;;;;;;6.88;3.30;;;;;;;;;;5072195;28;20026;-44
2022/12/21 00:06:04;;;;;;;5.53;3.65;;;;;;;;;;5072197;28;20104;-44
2022/12/21 00:08:30;;;;;;;4.75;3.38;;;;;;;;;;5071599;28;20033;-43
2022/12/21 00:10:59;;;;;;;5.38;3.53;;;;;;;;;;5060266;28;20036;-44
2022/12/21 00:13:25;;;;;;;4.22;3.22;;;;;;;;;;5072296;28;20409;-44
2022/12/21 00:16:01;;;;;;;5.15;3.05;;;;;;;;;;5072312;28;20028;-43
2022/12/21 00:18:27;;;;;;;4.90;3.28;;;;;;;;;;5072388;28;20095;-43
2022/12/21 00:20:58;;;;;;;5.03;3.17;;;;;;;;;;5072053;28;20104;-44
2022/12/21 00:23:24;;;;;;;4.80;3.17;;;;;;;;;;5070666;28;20051;-44
2022/12/21 00:25:50;;;;;;;4.53;2.92;;;;;;;;;;5071641;28;20100;-43
2022/12/21 00:28:16;;;;;;;4.68;3.00;;;;;;;;;;5042229;28;20397;-43
2022/12/21 00:30:41;;;;;;;4.30;3.30;;;;;;;;;;5072019;28;20103;-43
2022/12/21 00:33:07;;;;;;;4.50;3.10;;;;;;;;;;5061523;28;20040;-43
2022/12/21 00:35:33;;;;;;;4.25;2.58;;;;;;;;;;5072034;28;20073;-47
2022/12/21 00:37:59;;;;;;;4.30;2.78;;;;;;;;;;5069289;28;20469;-46
2022/12/21 00:40:25;;;;;;;4.78;3.00;;;;;;;;;;5057763;28;20284;-47
2022/12/21 00:42:51;;;;;;;4.35;2.58;;;;;;;;;;5067363;28;20079;-43
2022/12/21 00:45:17;;;;;;;3.15;2.42;;;;;;;;;;5072524;28;20044;-43
2022/12/21 00:47:43;;;;;;;2.88;1.98;;;;;;;;;;5071098;28;20041;-43
2022/12/21 00:50:09;;;;;;;4.07;3.22;;;;;;;;;;5071837;28;20045;-43
2022/12/21 00:52:35;;;;;;;4.25;2.67;;;;;;;;;;5070528;28;20408;-47
2022/12/21 00:55:01;;;;;;;3.15;2.53;;;;;;;;;;5077504;28;20041;-43
2022/12/21 00:57:31;;;;;;;4.38;2.75;;;;;;;;;;5071464;28;20103;-43
2022/12/21 00:59:56;;;;;;;3.95;2.40;;;;;;;;;;5058533;28;20040;-44
2022/12/21 01:02:22;;;;;;;3.60;2.30;;;;;;;;;;5075934;28;20024;-43
2022/12/21 01:04:48;;;;;;;3.63;2.47;;;;;;;;;;5075311;28;20028;-44
2022/12/21 01:07:15;;;;;;;4.45;2.33;;;;;;;;;;5070631;28;20068;-44
2022/12/21 01:09:41;;;;;;;5.43;2.60;;;;;;;;;;5070073;28;20025;-43
2022/12/21 01:12:07;;;;;;;4.57;2.80;;;;;;;;;;5071352;28;20028;-43
2022/12/21 01:14:33;;;;;;;3.22;2.50;;;;;;;;;;5059255;28;20358;-47
2022/12/21 01:16:59;;;;;;;3.55;2.40;;;;;;;;;;5070703;28;20060;-43
2022/12/21 01:19:25;;;;;;;2.47;2.10;;;;;;;;;;5071323;28;20508;-43
2022/12/21 01:21:51;;;;;;;3.58;2.42;;;;;;;;;;5070005;28;20036;-43
2022/12/21 01:24:17;;;;;;;3.58;2.22;;;;;;;;;;5071011;28;20013;-44
2022/12/21 01:26:43;;;;;;;4.03;2.28;;;;;;;;;;5061816;28;20385;-44
2022/12/21 01:29:12;;;;;;;4.22;2.20;;;;;;;;;;5071254;28;20021;-44
2022/12/21 01:31:38;;;;;;;2.65;2.30;;;;;;;;;;5040038;28;20042;-47
2022/12/21 01:34:04;;;;;;;3.53;2.10;;;;;;;;;;5057704;28;20028;-44
2022/12/21 01:36:30;;;;;;;2.22;1.95;;;;;;;;;;5071671;28;20020;-44
2022/12/21 01:38:56;;;;;;;2.85;1.90;;;;;;;;;;5068947;28;20020;-44
2022/12/21 01:41:23;;;;;;;2.85;1.90;;;;;;;;;;5070835;28;20470;-44
2022/12/21 01:43:51;;;;;;;2.50;2.05;;;;;;;;;;5045390;28;20032;-44
2022/12/21 01:46:17;;;;;;;4.47;2.33;;;;;;;;;;5059976;28;20029;-44
2022/12/21 01:48:49;;;;;;;3.28;2.35;;;;;;;;;;5067443;28;20036;-44
2022/12/21 01:51:16;;;;;;;2.53;1.85;;;;;;;;;;5070999;28;20025;-44
2022/12/21 01:53:45;;;;;;;3.47;2.08;;;;;;;;;;5069822;28;20074;-43
2022/12/21 01:56:13;;;;;;;2.38;1.75;;;;;;;;;;5070170;28;20411;-43
2022/12/21 01:58:40;;;;;;;3.05;1.95;;;;;;;;;;5069859;28;20474;-43
2022/12/21 02:01:07;;;;;;;3.97;1.95;;;;;;;;;;5070775;28;20127;-43
2022/12/21 02:03:50;;;;;;;2.75;1.90;;;;;;;;;;5059832;28;20132;-47
2022/12/21 02:06:18;;;;;;;3.97;2.13;;;;;;;;;;5070898;28;20052;-44
2022/12/21 02:08:44;;;;;;;2.92;1.80;;;;;;;;;;5069168;28;20081;-43
2022/12/21 02:11:11;;;;;;;2.50;1.75;;;;;;;;;;5070638;28;20024;-43
2022/12/21 02:13:37;;;;;;;5.90;1.98;;;;;;;;;;5047937;28;20390;-47
2022/12/21 02:16:10;;;;;;;2.50;1.80;;;;;;;;;;5063623;28;20029;-43
2022/12/21 02:18:55;;;;;;;3.83;2.00;;;;;;;;;;5066934;28;20120;-44
2022/12/21 02:21:24;;;;;;;3.33;1.80;;;;;;;;;;5060667;28;20036;-43
2022/12/21 02:23:59;;;;;;;4.78;2.30;;;;;;;;;;5063157;28;20151;-43
2022/12/21 02:26:41;;;;;;;4.32;2.20;;;;;;;;;;5070591;28;20025;-43
2022/12/21 02:29:25;;;;;;;2.38;1.60;;;;;;;;;;5070414;28;20033;-43
2022/12/21 02:32:06;;;;;;;2.13;1.73;;;;;;;;;;5050838;28;20040;-44
2022/12/21 02:34:45;;;;;;;2.30;1.45;;;;;;;;;;5074170;28;20028;-44
2022/12/21 02:37:11;;;;;;;2.72;1.73;;;;;;;;;;5073930;28;20108;-44
2022/12/21 02:39:37;;;;;;;2.55;1.95;;;;;;;;;;5073163;28;20124;-45
2022/12/21 02:44:12;;;;;;;2.60;1.80;;;;;;;;;;5073839;28;20036;-43
2022/12/21 02:45:00;;;;;;;3.88;1.40;;;;;;;;;;5055647;28;20037;-46
2022/12/21 02:47:32;;;;;;;3.50;1.77;;;;;;;;;;5069088;28;20485;-44
2022/12/21 02:50:03;;;;;;;1.95;1.35;;;;;;;;;;5074219;28;20036;-43
2022/12/21 02:52:35;;;;;;;2.33;1.88;;;;;;;;;;5072334;28;20075;-43
2022/12/21 02:55:01;;;;;;;2.45;1.70;;;;;;;;;;5075497;28;20048;-44
2022/12/21 02:57:35;;;;;;;2.15;1.70;;;;;;;;;;5073408;28;20064;-43
2022/12/21 03:00:03;;;;;;;2.63;1.65;;;;;;;;;;5074186;28;20040;-43
2022/12/21 03:02:43;;;;;;;2.20;1.38;;;;;;;;;;5065275;28;20060;-45
2022/12/21 03:05:12;;;;;;;2.90;1.80;;;;;;;;;;5073968;28;20525;-43
2022/12/21 03:07:51;;;;;;;3.08;1.95;;;;;;;;;;5072960;28;20521;-44
2022/12/21 03:10:26;;;;;;;2.25;1.40;;;;;;;;;;5074120;28;20374;-43
2022/12/21 03:13:10;;;;;;;2.97;1.73;;;;;;;;;;5072359;28;20107;-44
2022/12/21 03:15:45;;;;;;;2.10;1.60;;;;;;;;;;5073197;28;20090;-47
2022/12/21 03:18:40;;;;;;;2.40;1.75;;;;;;;;;;5069234;28;20063;-47
2022/12/21 03:21:06;;;;;;;2.40;1.45;;;;;;;;;;5043284;28;20044;-44
2022/12/21 03:23:38;;;;;;;2.33;1.50;;;;;;;;;;5072826;28;20470;-47
2022/12/21 03:26:08;;;;;;;2.33;1.30;;;;;;;;;;5061752;28;20028;-44
2022/12/21 03:28:35;;;;;;;1.55;1.20;;;;;;;;;;5072906;28;20020;-47
2022/12/21 03:31:07;;;;;;;2.35;1.80;;;;;;;;;;5073262;28;20020;-43
2022/12/21 03:33:37;;;;;;;2.57;1.30;;;;;;;;;;5060170;28;20067;-47
2022/12/21 03:36:06;;;;;;;2.42;1.63;;;;;;;;;;5063089;28;20627;-44
2022/12/21 03:38:35;;;;;;;1.88;1.42;;;;;;;;;;5073095;28;20032;-43
2022/12/21 03:41:03;;;;;;;3.20;1.58;;;;;;;;;;5073626;28;20028;-43
2022/12/21 03:43:32;;;;;;;3.00;1.50;;;;;;;;;;5072623;28;20029;-43
2022/12/21 03:46:01;;;;;;;2.17;1.35;;;;;;;;;;5071486;28;20028;-44
2022/12/21 03:48:38;;;;;;;1.83;1.35;;;;;;;;;;5072612;28;20481;-43
2022/12/21 03:51:07;;;;;;;2.47;1.33;;;;;;;;;;5073640;28;20063;-43
2022/12/21 03:53:33;;;;;;;2.60;1.75;;;;;;;;;;5060963;28;20024;-47
2022/12/21 03:56:01;;;;;;;2.08;1.35;;;;;;;;;;5070747;28;20103;-44
2022/12/21 03:58:28;;;;;;;1.63;1.25;;;;;;;;;;5072542;28;20029;-43
2022/12/21 04:01:16;;;;;;;2.63;1.90;;;;;;;;;;5072221;28;20039;-43
2022/12/21 04:03:43;;;;;;;2.35;1.48;;;;;;;;;;5064151;28;20031;-44
2022/12/21 04:06:16;;;;;;;2.00;1.20;;;;;;;;;;5073186;28;20474;-44
2022/12/21 04:08:42;;;;;;;2.47;1.23;;;;;;;;;;5071466;28;20534;-43
2022/12/21 04:12:35;;;;;;;2.65;1.40;;;;;;;;;;5065222;28;20028;-44
2022/12/21 04:13:54;;;;;;;1.75;1.20;;;;;;;;;;5040233;28;20021;-45
2022/12/21 04:16:20;;;;;;;1.60;1.13;;;;;;;;;;5083580;28;20021;-44
2022/12/21 04:21:30;;;;;;;2.47;1.40;;;;;;;;;;5072968;28;20035;-44
2022/12/21 04:29:25;;;;;;;2.72;1.13;;;;;;;;;;5072959;28;20547;-43
2022/12/21 04:31:51;;;;;;;2.15;1.20;;;;;;;;;;5041844;28;20036;-44
2022/12/21 04:34:17;;;;;;;2.40;1.30;;;;;;;;;;5071618;28;20024;-44
2022/12/21 04:39:28;;;;;;;1.70;1.10;;;;;;;;;;5072287;28;20492;-43
2022/12/21 04:41:54;;;;;;;2.72;1.35;;;;;;;;;;5070783;28;20021;-44
2022/12/21 04:44:20;;;;;;;2.03;1.20;;;;;;;;;;5072026;28;20539;-43
2022/12/21 04:46:46;;;;;;;1.95;1.17;;;;;;;;;;5057987;28;20048;-43
2022/12/21 04:49:12;;;;;;;2.63;1.58;;;;;;;;;;5048665;28;20040;-47
2022/12/21 04:51:38;;;;;;;1.52;1.10;;;;;;;;;;5044100;28;20509;-47
2022/12/21 04:54:04;;;;;;;2.25;1.52;;;;;;;;;;5063062;28;20041;-44
2022/12/21 04:56:30;;;;;;;2.08;1.25;;;;;;;;;;5090852;28;20055;-44
2022/12/21 04:58:56;;;;;;;1.38;1.00;;;;;;;;;;5090836;28;20206;-44
2022/12/21 05:01:22;;;;;;;2.83;1.30;;;;;;;;;;5092136;28;20024;-44
2022/12/21 05:03:48;;;;;;;1.75;1.20;;;;;;;;;;5090440;28;20354;-43
2022/12/21 05:06:15;;;;;;;2.50;1.30;;;;;;;;;;5092566;28;20107;-43
2022/12/21 05:08:42;;;;;;;1.73;1.33;;;;;;;;;;5090843;28;20024;-43
2022/12/21 05:11:08;;;;;;;1.25;0.85;;;;;;;;;;5082480;28;20052;-44
2022/12/21 05:13:35;;;;;;;1.92;1.00;;;;;;;;;;5091860;28;20128;-47
2022/12/21 05:16:04;;;;;;;1.60;1.17;;;;;;;;;;5091895;28;20020;-43
2022/12/21 05:18:30;;;;;;;1.77;1.05;;;;;;;;;;5091922;28;20039;-43
2022/12/21 05:20:56;;;;;;;1.42;1.13;;;;;;;;;;5072603;28;20775;-44
2022/12/21 05:23:22;;;;;;;3.85;1.00;;;;;;;;;;5091521;28;20020;-44
2022/12/21 05:25:48;;;;;;;4.63;1.00;;;;;;;;;;5087434;28;20016;-47
2022/12/21 05:28:14;;;;;;;1.25;0.90;;;;;;;;;;5085125;28;20042;-43
2022/12/21 05:30:40;;;;;;;2.25;1.10;;;;;;;;;;5091266;28;20028;-44
2022/12/21 05:33:06;;;;;;;1.25;0.93;;;;;;;;;;5090910;28;20030;-44
2022/12/21 05:35:32;;;;;;;3.10;1.73;;;;;;;;;;5091922;28;20032;-44
2022/12/21 05:37:58;;;;;;;1.40;0.90;;;;;;;;;;5089593;28;20035;-44
2022/12/21 05:40:24;;;;;;;2.75;1.23;;;;;;;;;;5082982;28;20076;-43
2022/12/21 05:42:50;;;;;;;1.10;0.80;;;;;;;;;;5079948;28;21839;-47
2022/12/21 05:45:16;;;;;;;1.20;0.88;;;;;;;;;;5090792;28;20020;-43
2022/12/21 05:47:46;;;;;;;2.25;0.90;;;;;;;;;;5090272;28;20032;-43
2022/12/21 05:50:12;;;;;;;2.30;1.20;;;;;;;;;;5078721;28;20037;-43
2022/12/21 05:52:38;;;;;;;1.10;0.80;;;;;;;;;;5091809;28;20119;-45
2022/12/21 05:55:04;;;;;;;1.50;0.98;;;;;;;;;;5097826;28;20052;-43
2022/12/21 05:57:30;;;;;;;1.48;0.90;;;;;;;;;;5089855;28;20024;-43
2022/12/21 05:59:56;;;;;;;1.38;0.88;;;;;;;;;;5076357;28;20020;-43
2022/12/21 06:02:22;;;;;;;1.15;0.93;;;;;;;;;;5088623;28;20028;-44
2022/12/21 06:04:48;;;;;;;2.80;0.90;;;;;;;;;;5089809;28;20046;-43
2022/12/21 06:07:14;;;;;;;1.58;0.73;;;;;;;;;;5089445;28;20464;-44
2022/12/21 06:09:40;;;;;;;1.38;0.90;;;;;;;;;;5092937;28;20127;-43
2022/12/21 06:12:06;;;;;;;1.27;0.90;;;;;;;;;;5093076;28;20035;-43
2022/12/21 06:14:32;;;;;;;1.58;1.00;;;;;;;;;;5095421;28;20469;-45
2022/12/21 06:16:58;;;;;;;3.47;1.15;;;;;;;;;;5082391;28;20035;-44
2022/12/21 06:19:24;;;;;;;1.67;1.00;;;;;;;;;;5094820;28;20098;-44
2022/12/21 06:21:53;;;;;;;1.67;1.05;;;;;;;;;;5094306;28;20038;-43
2022/12/21 06:24:19;;;;;;;1.70;0.90;;;;;;;;;;5094187;28;20024;-43
2022/12/21 06:26:45;;;;;;;0.90;0.77;;;;;;;;;;5093634;28;20532;-44
2022/12/21 06:29:11;;;;;;;1.25;0.93;;;;;;;;;;5094981;28;20058;-44
2022/12/21 06:31:37;;;;;;;1.08;0.80;;;;;;;;;;5078055;28;20036;-47
2022/12/21 06:34:03;;;;;;;1.48;0.85;;;;;;;;;;5063435;28;20035;-47
2022/12/21 06:36:29;;;;;;;1.65;1.10;;;;;;;;;;5066105;28;20033;-46
2022/12/21 06:38:56;;;;;;;1.10;0.80;;;;;;;;;;5061316;28;20072;-45
2022/12/21 06:41:22;;;;;;;1.52;0.82;;;;;;;;;;5093421;28;20426;-44
2022/12/21 06:43:50;;;;;;;1.05;0.80;;;;;;;;;;5085497;28;20044;-45
2022/12/21 06:46:17;;;;;;;0.68;0.60;;;;;;;;;;5089823;28;20020;-43
2022/12/21 06:48:43;;;;;;;1.20;1.00;;;;;;;;;;5088293;28;20040;-44
2022/12/21 06:51:13;;;;;;;2.85;0.90;;;;;;;;;;5098443;28;20479;-43
2022/12/21 06:53:42;;;;;;;1.60;0.68;;;;;;;;;;5083500;28;20102;-45
2022/12/21 06:56:12;;;;;;;3.60;0.90;;;;;;;;;;5085563;28;20128;-47
2022/12/21 06:58:38;;;;;;;1.67;0.88;;;;;;;;;;5075824;28;20036;-44
2022/12/21 07:01:10;;;;;;;1.05;0.80;;;;;;;;;;5102110;28;20042;-44
2022/12/21 07:03:36;;;;;;;1.80;0.75;;;;;;;;;;5082658;28;20040;-45
2022/12/21 07:06:02;;;;;;;2.03;0.80;;;;;;;;;;5094489;28;20020;-44
2022/12/21 07:08:29;;;;;;;1.20;0.80;;;;;;;;;;5088291;28;20498;-44
2022/12/21 07:10:56;;;;;;;2.58;0.70;;;;;;;;;;5102728;28;20102;-43
2022/12/21 07:13:22;;;;;;;1.40;1.10;;;;;;;;;;5079343;28;20051;-44
2022/12/21 07:15:48;;;;;;;4.10;1.13;;;;;;;;;;5098861;28;20032;-44
2022/12/21 07:18:14;;;;;;;5.18;1.08;;;;;;;;;;5089955;28;20114;-43
2022/12/21 07:20:40;;;;;;;7.38;2.00;;;;;;;;;;5092361;28;20484;-44
2022/12/21 07:23:06;;;;;;;2.35;0.70;;;;;;;;;;5089183;28;20046;-44
2022/12/21 07:25:32;;;;;;;2.50;1.08;;;;;;;;;;5093371;28;20073;-43
2022/12/21 07:27:58;;;;;;;2.17;1.00;;;;;;;;;;5092941;28;20115;-43
2022/12/21 07:30:24;;;;;;;1.88;0.73;;;;;;;;;;5086839;28;20128;-46
2022/12/21 07:32:53;;;;;;;6.35;1.10;;;;;;;;;;5064631;28;20066;-45
2022/12/21 07:35:19;;;;;;;4.55;0.80;;;;;;;;;;5087787;28;20028;-44
2022/12/21 07:37:45;;;;;;;7.15;0.85;;;;;;;;;;5092589;28;20032;-43
2022/12/21 07:40:11;;;;;;;4.85;1.13;;;;;;;;;;5093828;28;20530;-44
2022/12/21 07:42:38;;;;;;;2.35;0.80;;;;;;;;;;5092267;28;20024;-44
2022/12/21 07:45:04;;;;;;;2.80;1.58;;;;;;;;;;5078936;28;20028;-44
2022/12/21 07:47:30;;;;;;;2.90;0.82;;;;;;;;;;5085086;28;20032;-44
2022/12/21 07:49:56;;;;;;;1.73;0.95;;;;;;;;;;5088215;28;20070;-44
2022/12/21 07:52:22;;;;;;;1.80;0.85;;;;;;;;;;5092555;28;20050;-44
2022/12/21 07:54:48;;;;;;;9.50;1.13;;;;;;;;;;5092290;28;20078;-44
2022/12/21 07:57:14;;;;;;;2.05;0.85;;;;;;;;;;5084064;28;20074;-43
2022/12/21 07:59:40;;;;;;;3.13;0.90;;;;;;;;;;5092533;28;20035;-44
2022/12/21 08:02:06;;;;;;;4.38;1.10;;;;;;;;;;5072693;28;20028;-44
2022/12/21 08:04:32;;;;;;;6.15;1.00;;;;;;;;;;5091737;28;20059;-44
2022/12/21 08:06:58;;;;;;;2.28;0.90;;;;;;;;;;5091540;28;20036;-43
2022/12/21 08:09:24;;;;;;;4.47;1.13;;;;;;;;;;5091386;28;20104;-44
2022/12/21 08:11:50;;;;;;;4.97;0.90;;;;;;;;;;5091017;28;20055;-43
2022/12/21 08:14:16;;;;;;;4.70;1.10;;;;;;;;;;5084269;28;20024;-44
2022/12/21 08:16:41;;;;;;;3.03;1.08;;;;;;;;;;5090681;28;20032;-44
2022/12/21 08:19:08;;;;;;;1.48;1.00;;;;;;;;;;5093224;28;20120;-44
2022/12/21 08:21:33;;;;;;;4.10;1.20;;;;;;;;;;5090860;28;20024;-47
2022/12/21 08:23:59;;;;;;;5.88;1.58;;;;;;;;;;5091761;28;20520;-45
2022/12/21 08:26:25;;;;;;;2.78;0.90;;;;;;;;;;5092713;28;20028;-44
2022/12/21 08:28:51;;;;;;;4.57;1.05;;;;;;;;;;5091365;28;20024;-43
2022/12/21 08:31:19;;;;;;;4.32;1.23;;;;;;;;;;5086664;28;20039;-43
2022/12/21 08:33:45;;;;;;;4.90;1.20;;;;;;;;;;5090978;28;20493;-45
2022/12/21 08:36:15;;;;;;;2.38;0.63;;;;;;;;;;5091682;28;20039;-43
2022/12/21 08:38:41;;;;;;;2.08;0.70;;;;;;;;;;5079568;28;20032;-44
2022/12/21 08:41:07;;;;;;;4.13;1.00;;;;;;;;;;5092042;28;20012;-45
2022/12/21 08:43:36;;;;;;;1.90;0.95;;;;;;;;;;5087727;28;20028;-47
2022/12/21 08:46:06;;;;;;;3.42;1.00;;;;;;;;;;5092168;28;20020;-44
2022/12/21 08:48:32;;;;;;;3.28;1.05;;;;;;;;;;5088810;28;20093;-44
2022/12/21 08:50:59;;;;;;;3.45;0.80;;;;;;;;;;5091259;28;20032;-44
2022/12/21 08:53:25;;;;;;;2.72;0.82;;;;;;;;;;5089105;28;20038;-44
2022/12/21 08:55:52;;;;;;;3.05;0.80;;;;;;;;;;5090829;28;20097;-44
2022/12/21 08:58:18;;;;;;;5.32;1.15;;;;;;;;;;5091227;28;20055;-43
2022/12/21 09:00:44;;;;;;;3.33;0.93;;;;;;;;;;5091605;28;20012;-43
2022/12/21 09:03:10;;;;;;;3.58;0.70;;;;;;;;;;5088187;28;20032;-44
2022/12/21 09:05:36;;;;;;;2.35;0.90;;;;;;;;;;5090028;28;20020;-47
2022/12/21 09:08:03;;;;;;;1.30;0.73;;;;;;;;;;5090901;28;20028;-44
2022/12/21 09:10:29;;;;;;;2.17;0.80;;;;;;;;;;5091230;28;20044;-43
2022/12/21 09:12:56;;;;;;;3.85;0.90;;;;;;;;;;5090473;28;20058;-44
2022/12/21 09:15:23;;;;;;;2.38;0.90;;;;;;;;;;5091636;28;20044;-43
2022/12/21 09:17:49;;;;;;;2.03;0.80;;;;;;;;;;5084024;28;20140;-48
2022/12/21 09:20:15;;;;;;;4.07;0.95;;;;;;;;;;5085973;28;20103;-44
2022/12/21 09:22:40;;;;;;;2.38;1.05;;;;;;;;;;5081685;28;20448;-46
2022/12/21 09:25:10;;;;;;;2.70;0.90;;;;;;;;;;5076724;28;20055;-44
2022/12/21 09:27:36;;;;;;;1.88;0.70;;;;;;;;;;5086520;28;20040;-47
2022/12/21 09:30:02;;;;;;;1.35;0.73;;;;;;;;;;5090664;28;20103;-43
2022/12/21 09:32:29;;;;;;;2.65;0.88;;;;;;;;;;5088677;28;20020;-44
2022/12/21 09:34:55;;;;;;;4.22;1.58;;;;;;;;;;5084713;28;21127;-44
2022/12/21 09:37:21;;;;;;;2.95;0.95;;;;;;;;;;5081839;28;20043;-43
2022/12/21 09:39:47;;;;;;;4.47;0.82;;;;;;;;;;5075783;28;20055;-43
2022/12/21 09:42:19;;;;;;;2.40;1.05;;;;;;;;;;5092909;28;20020;-44
2022/12/21 09:44:44;;;;;;;;;;;;;;;;;;5086774;28;20468;-43
2022/12/21 09:47:31;;;;;;;2.85;1.00;;;;;;;;;;5100867;28;19944;-44
2022/12/21 09:49:59;;;;;;;4.55;1.20;;;;;;;;;;5088450;28;20043;-43
2022/12/21 09:52:28;;;;;;;6.50;2.05;;;;;;;;;;5081221;28;20020;-44
2022/12/21 09:54:57;;;;;;;2.75;0.90;;;;;;;;;;5080320;28;20708;-43
2022/12/21 09:57:26;;;;;;;2.28;1.20;;;;;;;;;;5091557;28;20028;-40
2022/12/21 09:59:53;;;;;;;3.40;0.90;;;;;;;;;;5088475;28;20032;-43
2022/12/21 10:02:37;;;;;;;2.08;1.08;;;;;;;;;;5100520;28;20016;-43
2022/12/21 10:05:16;;;;;;;3.58;0.90;;;;;;;;;;5089437;28;20074;-44
2022/12/21 10:07:51;;;;;;;4.05;1.52;;;;;;;;;;5084777;28;20051;-43
2022/12/21 10:10:23;;;;;;;1.90;0.88;;;;;;;;;;5099451;28;20473;-43
2022/12/21 10:12:55;;;;;;;3.15;0.85;;;;;;;;;;5089684;28;20143;-43
2022/12/21 10:15:41;;;;;;;3.97;1.27;;;;;;;;;;5090343;28;20544;-43
2022/12/21 10:18:07;;;;;;;2.78;1.20;;;;;;;;;;5087642;28;20020;-44
2022/12/21 10:20:33;;;;;;;1.35;0.65;;;;;;;;;;5094034;28;20048;-49
2022/12/21 10:23:01;;;;;;;1.52;0.93;;;;;;;;;;5090360;28;20025;-45
2022/12/21 10:25:41;;;;;;;1.73;0.90;;;;;;;;;;5085977;28;20028;-46
2022/12/21 10:28:07;;;;;;;1.55;0.80;;;;;;;;;;5088624;28;20036;-46
2022/12/21 10:30:34;;;;;;;5.07;1.10;;;;;;;;;;5087313;28;20082;-49
2022/12/21 10:33:00;;;;;;;2.17;0.80;;;;;;;;;;5089085;28;20060;-45
2022/12/21 10:35:39;;;;;;;5.95;1.13;;;;;;;;;;5089411;28;20107;-45
2022/12/21 10:38:14;;;;;;;1.10;0.85;;;;;;;;;;5083058;28;20429;-47
2022/12/21 10:40:40;;;;;;;3.13;1.27;;;;;;;;;;5092619;28;20033;-46
2022/12/21 10:43:06;;;;;;;7.70;0.95;;;;;;;;;;5089553;28;20073;-46
2022/12/21 10:45:32;;;;;;;1.55;0.93;;;;;;;;;;5087514;28;20455;-45
2022/12/21 10:47:58;;;;;;;3.17;0.80;;;;;;;;;;5087228;28;20111;-45
2022/12/21 10:50:26;;;;;;;1.98;0.80;;;;;;;;;;5089126;28;20143;-46
2022/12/21 10:52:54;;;;;;;1.52;1.08;;;;;;;;;;5083869;28;20024;-45
2022/12/21 10:55:20;;;;;;;1.63;0.85;;;;;;;;;;5092353;28;20044;-45
2022/12/21 10:57:47;;;;;;;2.67;0.80;;;;;;;;;;5091476;28;20039;-47
2022/12/21 11:00:23;;;;;;;2.20;0.90;;;;;;;;;;5089888;28;20029;-45
2022/12/21 11:02:51;;;;;;;4.15;1.27;;;;;;;;;;5065117;28;20170;-44
2022/12/21 11:05:26;;;;;;;2.20;0.73;;;;;;;;;;5097961;28;20541;-43
2022/12/21 11:07:52;;;;;;;1.65;0.90;;;;;;;;;;5081874;28;20059;-44
2022/12/21 11:10:28;;;;;;;2.70;1.23;;;;;;;;;;5099151;28;20032;-43
2022/12/21 11:12:54;;;;;;;1.67;0.98;;;;;;;;;;5090109;28;20636;-43
2022/12/21 11:15:21;;;;;;;2.05;0.88;;;;;;;;;;5098846;28;20044;-43
2022/12/21 11:17:48;;;;;;;1.20;0.60;;;;;;;;;;5088133;28;20024;-43
2022/12/21 11:20:19;;;;;;;4.18;1.17;;;;;;;;;;5094648;28;20092;-44
2022/12/21 11:22:46;;;;;;;1.92;0.60;;;;;;;;;;5086994;28;20030;-44
2022/12/21 11:25:17;;;;;;;3.13;0.82;;;;;;;;;;5090602;28;20122;-45
2022/12/21 11:27:46;;;;;;;1.05;0.60;;;;;;;;;;5089375;28;20044;-45
2022/12/21 11:30:33;;;;;;;0.88;0.60;;;;;;;;;;5092601;28;20035;-45
2022/12/21 11:33:00;;;;;;;1.77;0.70;;;;;;;;;;5086786;28;21928;-45
2022/12/21 11:35:27;;;;;;;1.88;1.15;;;;;;;;;;5090439;28;20111;-45
2022/12/21 11:37:54;;;;;;;1.30;0.70;;;;;;;;;;5088854;28;20031;-45
2022/12/21 11:40:21;;;;;;;2.70;0.88;;;;;;;;;;5091579;28;20035;-44
2022/12/21 11:42:53;;;;;;;1.38;0.77;;;;;;;;;;5091375;28;20036;-45
2022/12/21 11:45:19;;;;;;;;;;;;;;;;;;5093695;28;20042;-45
2022/12/21 11:47:51;;;;;;;1.25;0.70;;;;;;;;;;5089481;28;19911;-44
2022/12/21 11:50:20;;;;;;;1.70;0.63;;;;;;;;;;5082251;28;20437;-45
2022/12/21 11:53:03;;;;;;;1.30;0.68;;;;;;;;;;5087506;28;20028;-44
2022/12/21 11:55:34;;;;;;;2.03;0.68;;;;;;;;;;5097701;28;20040;-45
2022/12/21 11:58:00;;;;;;;;;;;;;;;;;;5091551;28;20496;-45
2022/12/21 12:00:28;;;;;;;4.15;0.65;;;;;;;;;;5088118;28;19904;-44
2022/12/21 12:02:57;;;;;;;1.95;0.90;;;;;;;;;;5095072;28;20082;-44
2022/12/21 12:05:49;;;;;;;5.85;1.00;;;;;;;;;;5073970;28;20424;-44
2022/12/21 12:08:33;;;;;;;2.55;0.82;;;;;;;;;;5063268;28;20109;-45
2022/12/21 12:11:02;;;;;;;2.00;0.70;;;;;;;;;;5087788;28;20032;-44
2022/12/21 12:13:28;;;;;;;2.25;0.70;;;;;;;;;;5095732;28;20103;-44
2022/12/21 12:16:16;;;;;;;2.85;1.38;;;;;;;;;;5091710;28;20103;-44
2022/12/21 12:18:48;;;;;;;2.35;0.80;;;;;;;;;;5089806;28;20107;-45
2022/12/21 12:21:21;;;;;;;1.52;0.75;;;;;;;;;;5092694;28;20035;-44
2022/12/21 12:24:06;;;;;;;1.50;0.85;;;;;;;;;;5080946;28;20453;-44
2022/12/21 12:26:43;;;;;;;0.93;0.60;;;;;;;;;;5089592;28;20051;-44
2022/12/21 12:29:12;;;;;;;3.85;0.75;;;;;;;;;;5092750;28;20029;-45
2022/12/21 12:31:50;;;;;;;1.98;0.85;;;;;;;;;;5090682;28;20055;-48
2022/12/21 12:34:39;;;;;;;3.40;0.60;;;;;;;;;;5091792;28;20027;-45
2022/12/21 12:37:16;;;;;;;1.45;0.93;;;;;;;;;;5092086;28;20073;-44
2022/12/21 12:39:54;;;;;;;1.85;0.88;;;;;;;;;;5091065;28;20039;-44
2022/12/21 12:42:21;;;;;;;1.35;0.80;;;;;;;;;;5079451;28;20078;-44
2022/12/21 12:44:58;;;;;;;1.25;0.70;;;;;;;;;;5090637;28;20103;-44
2022/12/21 12:47:24;;;;;;;2.13;0.70;;;;;;;;;;5077452;28;20020;-44
2022/12/21 12:49:50;;;;;;;4.65;0.85;;;;;;;;;;5091404;28;20031;-45
2022/12/21 12:52:16;;;;;;;4.03;1.20;;;;;;;;;;5090950;28;20475;-44
2022/12/21 12:55:01;;;;;;;3.15;1.15;;;;;;;;;;5090929;28;20048;-44
2022/12/21 12:57:37;;;;;;;2.50;1.20;;;;;;;;;;5091428;28;20036;-44
2022/12/21 13:00:10;;;;;;;3.35;0.95;;;;;;;;;;5088834;28;20110;-44
2022/12/21 13:02:36;;;;;;;2.30;1.55;;;;;;;;;;5081854;28;20546;-48
2022/12/21 13:05:09;;;;;;;3.78;0.90;;;;;;;;;;5091559;28;20020;-44
2022/12/21 13:07:54;;;;;;;3.65;0.93;;;;;;;;;;5090646;28;20028;-48
2022/12/21 13:10:23;;;;;;;2.10;0.93;;;;;;;;;;5090960;28;20385;-45
2022/12/21 13:12:55;;;;;;;5.15;1.52;;;;;;;;;;5080845;28;20028;-44
2022/12/21 13:15:21;;;;;;;;;;;;;;;;;;5090751;28;20031;-46
2022/12/21 13:17:54;;;;;;;2.45;1.02;;;;;;;;;;5088770;28;19908;-44
2022/12/21 13:20:21;;;;;;;1.50;0.88;;;;;;;;;;5091445;28;20027;-46
2022/12/21 13:22:56;;;;;;;3.42;0.90;;;;;;;;;;5089787;28;20020;-44
2022/12/21 13:25:35;;;;;;;2.33;0.85;;;;;;;;;;5090801;28;20020;-44
2022/12/21 13:28:03;;;;;;;2.33;1.10;;;;;;;;;;5090203;28;20020;-44
2022/12/21 13:30:31;;;;;;;2.15;0.90;;;;;;;;;;5091087;28;20076;-44
2022/12/21 13:32:58;;;;;;;5.28;1.15;;;;;;;;;;5090150;28;20384;-43
2022/12/21 13:35:28;;;;;;;6.93;1.00;;;;;;;;;;5091378;28;20035;-43
2022/12/21 13:37:57;;;;;;;2.10;0.55;;;;;;;;;;5085884;28;20032;-43
2022/12/21 13:40:40;;;;;;;2.75;0.98;;;;;;;;;;5087784;28;20047;-43
2022/12/21 13:43:06;;;;;;;1.42;1.02;;;;;;;;;;5089454;28;20059;-43
2022/12/21 13:45:32;;;;;;;1.55;1.00;;;;;;;;;;5090706;28;20059;-43
2022/12/21 13:47:58;;;;;;;3.00;0.80;;;;;;;;;;5089961;28;20845;-43
2022/12/21 13:50:43;;;;;;;1.83;0.82;;;;;;;;;;5082757;28;20036;-44
2022/12/21 13:53:09;;;;;;;6.07;1.10;;;;;;;;;;5091371;28;20028;-42
2022/12/21 13:55:35;;;;;;;2.72;1.13;;;;;;;;;;5091305;28;20044;-47
2022/12/21 13:58:20;;;;;;;3.30;1.45;;;;;;;;;;5090702;28;20039;-42
2022/12/21 14:00:52;;;;;;;4.78;0.98;;;;;;;;;;5087675;28;20063;-43
2022/12/21 14:03:27;;;;;;;2.20;0.90;;;;;;;;;;5090091;28;20024;-42
2022/12/21 14:05:53;;;;;;;4.90;1.75;;;;;;;;;;5086555;28;20048;-42
2022/12/21 14:08:36;;;;;;;3.90;1.15;;;;;;;;;;5087580;28;20075;-42
2022/12/21 14:11:11;;;;;;;5.90;1.75;;;;;;;;;;5097257;28;20043;-42
2022/12/21 14:13:56;;;;;;;2.63;1.23;;;;;;;;;;5093124;28;20099;-46
2022/12/21 14:16:23;;;;;;;5.40;0.80;;;;;;;;;;5087835;28;20028;-42
2022/12/21 14:18:56;;;;;;;5.03;1.33;;;;;;;;;;5090709;28;20055;-42
2022/12/21 14:21:29;;;;;;;1.08;0.88;;;;;;;;;;5089512;28;20020;-42
2022/12/21 14:23:57;;;;;;;4.97;2.05;;;;;;;;;;5088054;28;20083;-42
2022/12/21 14:26:38;;;;;;;2.40;0.90;;;;;;;;;;5090318;28;20024;-42
2022/12/21 14:29:30;;;;;;;1.87;1.30;;;;;;;;;;5088426;28;20031;-42
2022/12/21 14:32:01;;;;;;;4.28;1.05;;;;;;;;;;5092940;28;20039;-42
2022/12/21 14:34:30;;;;;;;2.25;1.10;;;;;;;;;;5091955;28;20051;-42
2022/12/21 14:37:05;;;;;;;3.25;1.13;;;;;;;;;;5090838;28;20678;-43
2022/12/21 14:39:36;;;;;;;1.77;0.80;;;;;;;;;;5092220;28;20039;-42
2022/12/21 14:42:21;;;;;;;2.90;1.08;;;;;;;;;;5093410;28;20091;-42
2022/12/21 14:45:05;;;;;;;3.28;0.90;;;;;;;;;;5088124;28;20025;-42
2022/12/21 14:47:31;;;;;;;3.45;0.90;;;;;;;;;;5092494;28;20040;-43
2022/12/21 14:50:01;;;;;;;3.83;1.23;;;;;;;;;;5093819;28;20747;-42
2022/12/21 14:52:33;;;;;;;2.00;0.85;;;;;;;;;;5087299;28;20093;-42
2022/12/21 14:54:59;;;;;;;3.28;1.33;;;;;;;;;;5093452;28;20119;-42
2022/12/21 14:57:36;;;;;;;2.25;0.98;;;;;;;;;;5092051;28;20032;-43
2022/12/21 15:00:17;;;;;;;3.58;0.77;;;;;;;;;;5085297;28;20020;-42
2022/12/21 15:02:49;;;;;;;2.58;0.93;;;;;;;;;;5091682;28;20373;-42
2022/12/21 15:05:24;;;;;;;5.75;1.23;;;;;;;;;;5094099;28;20016;-43
2022/12/21 15:07:52;;;;;;;2.17;0.90;;;;;;;;;;5085506;28;20061;-42